sensor_id;sensor_type;location;lat;lon;timestamp;P1;durP1;ratioP1;P2;durP2;ratioP2
27424;SDS011;15244;49.088;11.886;2022-09-09T00:00:59;3.22;;;1.63;;
27424;SDS011;15244;49.088;11.886;2022-09-09T00:11:27;1.77;;;1.67;;
27424;SDS011;15244;49.088;11.886;2022-09-09T00:16:52;1.60;;;1.52;;
27424;SDS011;15244;49.088;11.886;2022-09-09T00:22:00;1.88;;;1.70;;
27424;SDS011;15244;49.088;11.886;2022-09-09T00:32:43;2.15;;;2.05;;
27424;SDS011;15244;49.088;11.886;2022-09-09T00:37:46;4.90;;;2.70;;
27424;SDS011;15244;49.088;11.886;2022-09-09T00:42:52;2.92;;;2.67;;
27424;SDS011;15244;49.088;11.886;2022-09-09T00:48:06;3.95;;;3.20;;
27424;SDS011;15244;49.088;11.886;2022-09-09T00:58:25;2.92;;;2.83;;
27424;SDS011;15244;49.088;11.886;2022-09-09T01:08:52;5.30;;;4.85;;
27424;SDS011;15244;49.088;11.886;2022-09-09T01:25:01;6.32;;;5.93;;
27424;SDS011;15244;49.088;11.886;2022-09-09T01:41:10;6.85;;;6.32;;
27424;SDS011;15244;49.088;11.886;2022-09-09T01:46:26;6.38;;;5.97;;
27424;SDS011;15244;49.088;11.886;2022-09-09T01:51:30;5.55;;;5.25;;
27424;SDS011;15244;49.088;11.886;2022-09-09T02:02:19;4.68;;;4.47;;
27424;SDS011;15244;49.088;11.886;2022-09-09T02:12:55;4.88;;;4.57;;
27424;SDS011;15244;49.088;11.886;2022-09-09T02:18:03;3.78;;;3.58;;
27424;SDS011;15244;49.088;11.886;2022-09-09T02:23:09;3.92;;;3.72;;
27424;SDS011;15244;49.088;11.886;2022-09-09T02:28:13;4.35;;;4.07;;
27424;SDS011;15244;49.088;11.886;2022-09-09T02:33:18;4.60;;;4.30;;
27424;SDS011;15244;49.088;11.886;2022-09-09T02:38:24;3.85;;;3.65;;
27424;SDS011;15244;49.088;11.886;2022-09-09T02:43:42;3.70;;;3.50;;
27424;SDS011;15244;49.088;11.886;2022-09-09T02:48:51;3.90;;;3.70;;
27424;SDS011;15244;49.088;11.886;2022-09-09T02:59:22;3.50;;;3.30;;
27424;SDS011;15244;49.088;11.886;2022-09-09T03:04:27;4.18;;;3.97;;
27424;SDS011;15244;49.088;11.886;2022-09-09T03:09:30;3.80;;;3.60;;
27424;SDS011;15244;49.088;11.886;2022-09-09T03:14:34;3.97;;;3.78;;
27424;SDS011;15244;49.088;11.886;2022-09-09T03:19:36;4.35;;;4.05;;
27424;SDS011;15244;49.088;11.886;2022-09-09T03:24:41;4.13;;;3.92;;
27424;SDS011;15244;49.088;11.886;2022-09-09T03:29:43;4.22;;;3.90;;
27424;SDS011;15244;49.088;11.886;2022-09-09T03:34:49;4.38;;;4.18;;
27424;SDS011;15244;49.088;11.886;2022-09-09T03:39:52;5.22;;;4.93;;
27424;SDS011;15244;49.088;11.886;2022-09-09T03:44:56;5.60;;;5.30;;
27424;SDS011;15244;49.088;11.886;2022-09-09T03:49:59;6.32;;;5.93;;
27424;SDS011;15244;49.088;11.886;2022-09-09T03:55:02;6.70;;;6.30;;
27424;SDS011;15244;49.088;11.886;2022-09-09T04:00:06;7.10;;;6.57;;
27424;SDS011;15244;49.088;11.886;2022-09-09T04:05:19;7.68;;;7.18;;
27424;SDS011;15244;49.088;11.886;2022-09-09T04:10:22;6.63;;;6.22;;
27424;SDS011;15244;49.088;11.886;2022-09-09T04:15:25;6.68;;;6.28;;
27424;SDS011;15244;49.088;11.886;2022-09-09T04:20:27;6.10;;;5.75;;
27424;SDS011;15244;49.088;11.886;2022-09-09T04:25:28;5.95;;;5.60;;
27424;SDS011;15244;49.088;11.886;2022-09-09T04:30:30;5.68;;;5.28;;
27424;SDS011;15244;49.088;11.886;2022-09-09T04:35:33;5.00;;;4.70;;
27424;SDS011;15244;49.088;11.886;2022-09-09T04:40:35;5.22;;;4.93;;
27424;SDS011;15244;49.088;11.886;2022-09-09T04:45:37;5.15;;;4.75;;
27424;SDS011;15244;49.088;11.886;2022-09-09T04:50:39;5.05;;;4.75;;
27424;SDS011;15244;49.088;11.886;2022-09-09T04:55:44;4.72;;;4.43;;
27424;SDS011;15244;49.088;11.886;2022-09-09T05:00:46;5.22;;;4.93;;
27424;SDS011;15244;49.088;11.886;2022-09-09T05:05:49;5.80;;;5.40;;
27424;SDS011;15244;49.088;11.886;2022-09-09T05:10:51;6.40;;;6.00;;
27424;SDS011;15244;49.088;11.886;2022-09-09T05:15:54;7.15;;;6.65;;
27424;SDS011;15244;49.088;11.886;2022-09-09T05:20:59;6.47;;;6.07;;
27424;SDS011;15244;49.088;11.886;2022-09-09T05:26:02;6.90;;;6.40;;
27424;SDS011;15244;49.088;11.886;2022-09-09T05:31:05;5.95;;;5.45;;
27424;SDS011;15244;49.088;11.886;2022-09-09T05:36:18;5.40;;;5.10;;
27424;SDS011;15244;49.088;11.886;2022-09-09T05:41:24;5.40;;;5.07;;
27424;SDS011;15244;49.088;11.886;2022-09-09T05:46:28;5.18;;;4.88;;
27424;SDS011;15244;49.088;11.886;2022-09-09T05:51:30;4.70;;;4.50;;
27424;SDS011;15244;49.088;11.886;2022-09-09T05:56:36;5.15;;;4.85;;
27424;SDS011;15244;49.088;11.886;2022-09-09T06:01:40;5.53;;;5.13;;
27424;SDS011;15244;49.088;11.886;2022-09-09T06:06:49;5.40;;;5.10;;
27424;SDS011;15244;49.088;11.886;2022-09-09T06:11:53;5.40;;;5.10;;
27424;SDS011;15244;49.088;11.886;2022-09-09T06:16:56;5.90;;;5.50;;
27424;SDS011;15244;49.088;11.886;2022-09-09T06:22:02;6.43;;;6.03;;
27424;SDS011;15244;49.088;11.886;2022-09-09T06:27:07;7.50;;;7.00;;
27424;SDS011;15244;49.088;11.886;2022-09-09T06:32:10;7.68;;;7.18;;
27424;SDS011;15244;49.088;11.886;2022-09-09T06:37:12;8.80;;;8.00;;
27424;SDS011;15244;49.088;11.886;2022-09-09T06:42:21;7.45;;;6.85;;
27424;SDS011;15244;49.088;11.886;2022-09-09T06:47:22;6.63;;;6.22;;
27424;SDS011;15244;49.088;11.886;2022-09-09T06:52:26;6.25;;;5.75;;
27424;SDS011;15244;49.088;11.886;2022-09-09T06:57:29;6.80;;;6.40;;
27424;SDS011;15244;49.088;11.886;2022-09-09T07:02:39;6.40;;;5.90;;
27424;SDS011;15244;49.088;11.886;2022-09-09T07:07:43;5.32;;;4.95;;
27424;SDS011;15244;49.088;11.886;2022-09-09T07:12:50;5.65;;;5.35;;
27424;SDS011;15244;49.088;11.886;2022-09-09T07:18:00;4.88;;;4.57;;
27424;SDS011;15244;49.088;11.886;2022-09-09T07:23:03;5.15;;;4.65;;
27424;SDS011;15244;49.088;11.886;2022-09-09T07:28:04;4.82;;;3.97;;
27424;SDS011;15244;49.088;11.886;2022-09-09T07:33:07;4.05;;;3.80;;
27424;SDS011;15244;49.088;11.886;2022-09-09T07:38:08;3.95;;;3.72;;
27424;SDS011;15244;49.088;11.886;2022-09-09T07:43:10;4.65;;;3.85;;
27424;SDS011;15244;49.088;11.886;2022-09-09T07:48:18;4.07;;;3.88;;
27424;SDS011;15244;49.088;11.886;2022-09-09T07:53:19;3.92;;;3.55;;
27424;SDS011;15244;49.088;11.886;2022-09-09T07:58:21;3.47;;;3.28;;
27424;SDS011;15244;49.088;11.886;2022-09-09T08:03:23;3.47;;;3.25;;
27424;SDS011;15244;49.088;11.886;2022-09-09T08:08:25;3.88;;;3.67;;
27424;SDS011;15244;49.088;11.886;2022-09-09T08:13:26;5.75;;;5.25;;
27424;SDS011;15244;49.088;11.886;2022-09-09T08:18:28;2.85;;;2.65;;
27424;SDS011;15244;49.088;11.886;2022-09-09T08:23:29;4.40;;;3.30;;
27424;SDS011;15244;49.088;11.886;2022-09-09T08:28:31;7.10;;;6.70;;
27424;SDS011;15244;49.088;11.886;2022-09-09T08:33:33;3.47;;;3.00;;
27424;SDS011;15244;49.088;11.886;2022-09-09T08:38:35;2.60;;;2.40;;
27424;SDS011;15244;49.088;11.886;2022-09-09T08:43:37;2.72;;;2.53;;
27424;SDS011;15244;49.088;11.886;2022-09-09T08:48:47;2.65;;;2.45;;
27424;SDS011;15244;49.088;11.886;2022-09-09T08:54:00;4.10;;;2.70;;
27424;SDS011;15244;49.088;11.886;2022-09-09T08:59:07;2.45;;;2.25;;
27424;SDS011;15244;49.088;11.886;2022-09-09T09:04:27;2.80;;;2.60;;
27424;SDS011;15244;49.088;11.886;2022-09-09T09:09:55;4.15;;;1.80;;
27424;SDS011;15244;49.088;11.886;2022-09-09T09:15:00;2.30;;;1.50;;
27424;SDS011;15244;49.088;11.886;2022-09-09T09:20:02;1.58;;;1.48;;
27424;SDS011;15244;49.088;11.886;2022-09-09T09:30:23;1.20;;;1.10;;
27424;SDS011;15244;49.088;11.886;2022-09-09T09:35:36;1.48;;;1.38;;
27424;SDS011;15244;49.088;11.886;2022-09-09T09:40:56;2.28;;;1.10;;
27424;SDS011;15244;49.088;11.886;2022-09-09T09:46:03;1.85;;;0.90;;
27424;SDS011;15244;49.088;11.886;2022-09-09T09:51:19;1.45;;;1.13;;
27424;SDS011;15244;49.088;11.886;2022-09-09T09:56:26;0.75;;;0.70;;
27424;SDS011;15244;49.088;11.886;2022-09-09T10:01:32;1.63;;;0.70;;
27424;SDS011;15244;49.088;11.886;2022-09-09T10:06:38;4.00;;;1.17;;
27424;SDS011;15244;49.088;11.886;2022-09-09T10:11:44;1.00;;;1.00;;
27424;SDS011;15244;49.088;11.886;2022-09-09T10:17:14;0.70;;;0.70;;
27424;SDS011;15244;49.088;11.886;2022-09-09T10:22:30;1.52;;;1.02;;
27424;SDS011;15244;49.088;11.886;2022-09-09T10:32:48;1.35;;;1.25;;
27424;SDS011;15244;49.088;11.886;2022-09-09T10:43:20;0.40;;;0.30;;
27424;SDS011;15244;49.088;11.886;2022-09-09T10:49:05;1.00;;;0.47;;
27424;SDS011;15244;49.088;11.886;2022-09-09T11:00:16;0.50;;;0.50;;
27424;SDS011;15244;49.088;11.886;2022-09-09T11:05:21;0.60;;;0.60;;
27424;SDS011;15244;49.088;11.886;2022-09-09T11:10:34;0.68;;;0.68;;
27424;SDS011;15244;49.088;11.886;2022-09-09T11:15:55;0.70;;;0.50;;
27424;SDS011;15244;49.088;11.886;2022-09-09T11:21:02;2.00;;;0.63;;
27424;SDS011;15244;49.088;11.886;2022-09-09T11:26:06;0.63;;;0.40;;
27424;SDS011;15244;49.088;11.886;2022-09-09T11:36:31;0.30;;;0.30;;
27424;SDS011;15244;49.088;11.886;2022-09-09T11:41:36;0.40;;;0.40;;
27424;SDS011;15244;49.088;11.886;2022-09-09T11:46:39;0.43;;;0.40;;
27424;SDS011;15244;49.088;11.886;2022-09-09T11:51:42;0.98;;;0.50;;
27424;SDS011;15244;49.088;11.886;2022-09-09T11:56:44;1.27;;;0.43;;
27424;SDS011;15244;49.088;11.886;2022-09-09T12:01:53;0.70;;;0.47;;
27424;SDS011;15244;49.088;11.886;2022-09-09T12:06:59;1.38;;;0.22;;
27424;SDS011;15244;49.088;11.886;2022-09-09T12:27:36;0.65;;;0.45;;
27424;SDS011;15244;49.088;11.886;2022-09-09T12:32:46;1.27;;;0.50;;
27424;SDS011;15244;49.088;11.886;2022-09-09T12:43:20;1.40;;;0.50;;
27424;SDS011;15244;49.088;11.886;2022-09-09T12:48:39;1.30;;;0.73;;
27424;SDS011;15244;49.088;11.886;2022-09-09T12:53:45;0.50;;;0.40;;
27424;SDS011;15244;49.088;11.886;2022-09-09T12:58:47;0.75;;;0.52;;
27424;SDS011;15244;49.088;11.886;2022-09-09T13:03:52;0.82;;;0.30;;
27424;SDS011;15244;49.088;11.886;2022-09-09T13:08:55;0.88;;;0.30;;
27424;SDS011;15244;49.088;11.886;2022-09-09T13:14:00;1.27;;;0.60;;
27424;SDS011;15244;49.088;11.886;2022-09-09T13:19:09;0.52;;;0.38;;
27424;SDS011;15244;49.088;11.886;2022-09-09T13:24:23;0.60;;;0.60;;
27424;SDS011;15244;49.088;11.886;2022-09-09T13:29:31;0.88;;;0.30;;
27424;SDS011;15244;49.088;11.886;2022-09-09T13:34:34;0.50;;;0.40;;
27424;SDS011;15244;49.088;11.886;2022-09-09T13:39:36;0.77;;;0.40;;
27424;SDS011;15244;49.088;11.886;2022-09-09T13:44:39;1.48;;;0.65;;
27424;SDS011;15244;49.088;11.886;2022-09-09T13:49:42;0.52;;;0.52;;
27424;SDS011;15244;49.088;11.886;2022-09-09T13:54:48;0.98;;;0.70;;
27424;SDS011;15244;49.088;11.886;2022-09-09T13:59:51;1.00;;;0.60;;
27424;SDS011;15244;49.088;11.886;2022-09-09T14:05:11;2.30;;;1.02;;
27424;SDS011;15244;49.088;11.886;2022-09-09T14:10:12;1.02;;;0.60;;
27424;SDS011;15244;49.088;11.886;2022-09-09T14:15:14;1.75;;;0.93;;
27424;SDS011;15244;49.088;11.886;2022-09-09T14:20:16;1.38;;;0.80;;
27424;SDS011;15244;49.088;11.886;2022-09-09T14:25:18;1.35;;;0.50;;
27424;SDS011;15244;49.088;11.886;2022-09-09T14:30:20;1.30;;;0.60;;
27424;SDS011;15244;49.088;11.886;2022-09-09T14:35:25;2.55;;;0.88;;
27424;SDS011;15244;49.088;11.886;2022-09-09T14:40:28;0.65;;;0.60;;
27424;SDS011;15244;49.088;11.886;2022-09-09T14:45:32;0.75;;;0.50;;
27424;SDS011;15244;49.088;11.886;2022-09-09T14:50:35;3.45;;;0.70;;
27424;SDS011;15244;49.088;11.886;2022-09-09T14:55:43;1.15;;;0.47;;
27424;SDS011;15244;49.088;11.886;2022-09-09T15:00:46;0.45;;;0.43;;
27424;SDS011;15244;49.088;11.886;2022-09-09T15:05:50;2.10;;;0.80;;
27424;SDS011;15244;49.088;11.886;2022-09-09T15:10:58;0.85;;;0.60;;
27424;SDS011;15244;49.088;11.886;2022-09-09T15:16:08;1.48;;;0.70;;
27424;SDS011;15244;49.088;11.886;2022-09-09T15:21:17;1.63;;;0.70;;
27424;SDS011;15244;49.088;11.886;2022-09-09T15:26:20;2.03;;;0.77;;
27424;SDS011;15244;49.088;11.886;2022-09-09T15:31:23;2.63;;;1.08;;
27424;SDS011;15244;49.088;11.886;2022-09-09T15:36:33;1.25;;;0.90;;
27424;SDS011;15244;49.088;11.886;2022-09-09T15:41:36;1.65;;;0.80;;
27424;SDS011;15244;49.088;11.886;2022-09-09T15:46:38;1.42;;;0.98;;
27424;SDS011;15244;49.088;11.886;2022-09-09T15:51:43;1.27;;;0.50;;
27424;SDS011;15244;49.088;11.886;2022-09-09T15:56:56;1.63;;;1.00;;
27424;SDS011;15244;49.088;11.886;2022-09-09T16:01:58;0.95;;;0.60;;
27424;SDS011;15244;49.088;11.886;2022-09-09T16:07:02;1.35;;;0.65;;
27424;SDS011;15244;49.088;11.886;2022-09-09T16:12:05;2.47;;;0.73;;
27424;SDS011;15244;49.088;11.886;2022-09-09T16:17:13;1.50;;;0.75;;
27424;SDS011;15244;49.088;11.886;2022-09-09T16:22:15;2.15;;;0.52;;
27424;SDS011;15244;49.088;11.886;2022-09-09T16:27:17;2.08;;;0.50;;
27424;SDS011;15244;49.088;11.886;2022-09-09T16:32:19;2.08;;;0.90;;
27424;SDS011;15244;49.088;11.886;2022-09-09T16:37:21;3.33;;;0.93;;
27424;SDS011;15244;49.088;11.886;2022-09-09T16:42:22;3.22;;;1.08;;
27424;SDS011;15244;49.088;11.886;2022-09-09T16:47:24;2.40;;;0.55;;
27424;SDS011;15244;49.088;11.886;2022-09-09T16:52:26;2.28;;;0.30;;
27424;SDS011;15244;49.088;11.886;2022-09-09T16:57:27;0.93;;;0.32;;
27424;SDS011;15244;49.088;11.886;2022-09-09T17:02:31;1.08;;;0.60;;
27424;SDS011;15244;49.088;11.886;2022-09-09T17:07:33;6.53;;;0.60;;
27424;SDS011;15244;49.088;11.886;2022-09-09T17:12:34;1.67;;;0.30;;
27424;SDS011;15244;49.088;11.886;2022-09-09T17:17:42;0.47;;;0.32;;
27424;SDS011;15244;49.088;11.886;2022-09-09T17:22:46;0.80;;;0.20;;
27424;SDS011;15244;49.088;11.886;2022-09-09T17:27:47;1.08;;;0.30;;
27424;SDS011;15244;49.088;11.886;2022-09-09T17:32:49;0.75;;;0.40;;
27424;SDS011;15244;49.088;11.886;2022-09-09T17:37:52;2.40;;;0.47;;
27424;SDS011;15244;49.088;11.886;2022-09-09T17:42:56;1.70;;;0.70;;
27424;SDS011;15244;49.088;11.886;2022-09-09T17:47:58;2.38;;;0.75;;
27424;SDS011;15244;49.088;11.886;2022-09-09T17:52:59;1.98;;;0.50;;
27424;SDS011;15244;49.088;11.886;2022-09-09T17:58:01;0.32;;;0.32;;
27424;SDS011;15244;49.088;11.886;2022-09-09T18:03:03;0.73;;;0.60;;
27424;SDS011;15244;49.088;11.886;2022-09-09T18:08:05;1.42;;;0.68;;
27424;SDS011;15244;49.088;11.886;2022-09-09T18:13:06;1.23;;;0.60;;
27424;SDS011;15244;49.088;11.886;2022-09-09T18:18:10;1.10;;;0.43;;
27424;SDS011;15244;49.088;11.886;2022-09-09T18:23:11;1.75;;;0.60;;
27424;SDS011;15244;49.088;11.886;2022-09-09T18:28:13;1.00;;;0.40;;
27424;SDS011;15244;49.088;11.886;2022-09-09T18:33:15;1.27;;;0.75;;
27424;SDS011;15244;49.088;11.886;2022-09-09T18:38:16;0.60;;;0.30;;
27424;SDS011;15244;49.088;11.886;2022-09-09T18:43:18;1.70;;;0.38;;
27424;SDS011;15244;49.088;11.886;2022-09-09T18:48:21;1.35;;;0.40;;
27424;SDS011;15244;49.088;11.886;2022-09-09T18:53:24;0.50;;;0.30;;
27424;SDS011;15244;49.088;11.886;2022-09-09T18:58:25;1.17;;;0.38;;
27424;SDS011;15244;49.088;11.886;2022-09-09T19:03:28;1.15;;;1.02;;
27424;SDS011;15244;49.088;11.886;2022-09-09T19:08:32;0.60;;;0.57;;
27424;SDS011;15244;49.088;11.886;2022-09-09T19:13:37;0.87;;;0.50;;
27424;SDS011;15244;49.088;11.886;2022-09-09T19:18:40;0.60;;;0.30;;
27424;SDS011;15244;49.088;11.886;2022-09-09T19:23:45;0.38;;;0.38;;
27424;SDS011;15244;49.088;11.886;2022-09-09T19:28:47;2.42;;;0.80;;
27424;SDS011;15244;49.088;11.886;2022-09-09T19:33:51;0.93;;;0.60;;
27424;SDS011;15244;49.088;11.886;2022-09-09T19:38:53;1.92;;;0.60;;
27424;SDS011;15244;49.088;11.886;2022-09-09T19:43:59;1.80;;;0.80;;
27424;SDS011;15244;49.088;11.886;2022-09-09T19:49:04;0.88;;;0.60;;
27424;SDS011;15244;49.088;11.886;2022-09-09T19:54:08;0.95;;;0.60;;
27424;SDS011;15244;49.088;11.886;2022-09-09T19:59:11;1.23;;;0.65;;
27424;SDS011;15244;49.088;11.886;2022-09-09T20:04:13;2.13;;;0.60;;
27424;SDS011;15244;49.088;11.886;2022-09-09T20:09:16;2.90;;;0.60;;
27424;SDS011;15244;49.088;11.886;2022-09-09T20:14:18;1.30;;;0.75;;
27424;SDS011;15244;49.088;11.886;2022-09-09T20:19:21;1.33;;;0.70;;
27424;SDS011;15244;49.088;11.886;2022-09-09T20:24:24;1.02;;;0.80;;
27424;SDS011;15244;49.088;11.886;2022-09-09T20:29:26;2.08;;;0.80;;
27424;SDS011;15244;49.088;11.886;2022-09-09T20:34:28;2.92;;;0.95;;
27424;SDS011;15244;49.088;11.886;2022-09-09T20:39:31;1.80;;;0.73;;
27424;SDS011;15244;49.088;11.886;2022-09-09T20:44:33;1.27;;;0.60;;
27424;SDS011;15244;49.088;11.886;2022-09-09T20:49:34;2.25;;;0.93;;
27424;SDS011;15244;49.088;11.886;2022-09-09T20:54:36;1.15;;;0.47;;
27424;SDS011;15244;49.088;11.886;2022-09-09T20:59:39;0.57;;;0.43;;
27424;SDS011;15244;49.088;11.886;2022-09-09T21:04:42;2.22;;;0.63;;
27424;SDS011;15244;49.088;11.886;2022-09-09T21:09:45;1.27;;;0.50;;
27424;SDS011;15244;49.088;11.886;2022-09-09T21:14:46;1.35;;;0.70;;
27424;SDS011;15244;49.088;11.886;2022-09-09T21:19:48;0.57;;;0.52;;
27424;SDS011;15244;49.088;11.886;2022-09-09T21:24:49;0.93;;;0.55;;
27424;SDS011;15244;49.088;11.886;2022-09-09T21:29:51;1.30;;;0.52;;
27424;SDS011;15244;49.088;11.886;2022-09-09T21:34:53;1.27;;;0.68;;
27424;SDS011;15244;49.088;11.886;2022-09-09T21:39:54;0.55;;;0.40;;
27424;SDS011;15244;49.088;11.886;2022-09-09T21:44:56;1.90;;;0.50;;
27424;SDS011;15244;49.088;11.886;2022-09-09T21:49:58;0.73;;;0.70;;
27424;SDS011;15244;49.088;11.886;2022-09-09T21:55:01;2.40;;;0.88;;
27424;SDS011;15244;49.088;11.886;2022-09-09T22:00:04;1.45;;;0.75;;
27424;SDS011;15244;49.088;11.886;2022-09-09T22:05:12;3.33;;;1.13;;
27424;SDS011;15244;49.088;11.886;2022-09-09T22:10:14;1.50;;;1.40;;
27424;SDS011;15244;49.088;11.886;2022-09-09T22:15:16;1.70;;;1.20;;
27424;SDS011;15244;49.088;11.886;2022-09-09T22:20:18;1.13;;;1.13;;
27424;SDS011;15244;49.088;11.886;2022-09-09T22:25:20;1.17;;;0.90;;
27424;SDS011;15244;49.088;11.886;2022-09-09T22:30:22;0.75;;;0.60;;
27424;SDS011;15244;49.088;11.886;2022-09-09T22:35:23;1.48;;;1.10;;
27424;SDS011;15244;49.088;11.886;2022-09-09T22:40:25;2.25;;;0.90;;
27424;SDS011;15244;49.088;11.886;2022-09-09T22:45:26;0.70;;;0.65;;
27424;SDS011;15244;49.088;11.886;2022-09-09T22:50:28;2.70;;;0.80;;
27424;SDS011;15244;49.088;11.886;2022-09-09T22:55:40;1.00;;;0.90;;
27424;SDS011;15244;49.088;11.886;2022-09-09T23:00:42;1.20;;;0.70;;
27424;SDS011;15244;49.088;11.886;2022-09-09T23:05:51;0.60;;;0.60;;
27424;SDS011;15244;49.088;11.886;2022-09-09T23:10:53;1.23;;;1.13;;
27424;SDS011;15244;49.088;11.886;2022-09-09T23:15:56;0.93;;;0.70;;
27424;SDS011;15244;49.088;11.886;2022-09-09T23:20:57;1.80;;;0.80;;
27424;SDS011;15244;49.088;11.886;2022-09-09T23:26:02;2.80;;;0.80;;
27424;SDS011;15244;49.088;11.886;2022-09-09T23:31:06;1.83;;;0.70;;
27424;SDS011;15244;49.088;11.886;2022-09-09T23:36:11;0.90;;;0.68;;
27424;SDS011;15244;49.088;11.886;2022-09-09T23:41:15;2.30;;;0.70;;
27424;SDS011;15244;49.088;11.886;2022-09-09T23:46:23;0.80;;;0.80;;
27424;SDS011;15244;49.088;11.886;2022-09-09T23:51:31;2.05;;;1.08;;
27424;SDS011;15244;49.088;11.886;2022-09-09T23:56:36;0.80;;;0.80;;
